KSHV/SHV METAR and TAF weather

Enter ICAO airport designator
Station Type Date Time Source
KSHV METAR 2022/01/23 11:56 UTC NOAA

KSHV 231156Z 00000KT 10SM FEW010 M03/M08 A3029 RMK AO2 SLP258 FU FEW010 T10331078 11022 21044 55003


Station Type Date Time Source
KSHV Decoded METAR 2022/01/23 11:56 UTC NOAA

SHREVEPORT REGIONAL AIRPORT, LA, United States (KSHV) 32-27N 93-50W 80M
Jan 23, 2022 - 06:56 AM EST / 2022.01.23 1156 UTC
Wind: Calm:0
Visibility: 10 mile(s):0
Sky conditions: mostly clear
Temperature: 26.1 F (-3.3 C)
Dew Point: 18.0 F (-7.8 C)
Relative Humidity: 70%
Pressure (altimeter): 30.29 in. Hg (1025 hPa)
Pressure tendency: 0.01 inches (0.3 hPa) lower than three hours ago
ob: KSHV 231156Z 00000KT 10SM FEW010 M03/M08 A3029 RMK AO2 SLP258 FU FEW010 T10331078 11022 21044 55003
cycle: 12

Station Type Date Time Source
KSHV TAF 2022/01/23 12:22 UTC NOAA

TAF KSHV 231120Z 2312/2412 00000KT P6SM FEW010
FM231500 26010KT P6SM SKC
FM240000 24003KT P6SM SKC
FM240600 23004KT P6SM SCT250

Example: see airport list